Time;durP1;ratioP1;P1;durP2;ratioP2;P2;SDS_P1;SDS_P2;PMS_P1;PMS_P2;Temp;Humidity;BMP_temperature;BMP_pressure;BME280_temperature;BME280_humidity;BME280_pressure;Samples;Min_cycle;Max_cycle;Signal;HPM_P1;HPM_P2
2020/12/29 00:01:43;;;;;;;14.13;9.25;;;;;;;5.60;73.46;97993.18;1788845;80;25692;-57
2020/12/29 00:04:22;;;;;;;11.35;7.92;;;;;;;5.71;73.43;97996.24;1814573;77;34739;-58
2020/12/29 00:06:55;;;;;;;13.40;8.78;;;;;;;5.66;73.40;97989.18;1785637;80;25662;-59
2020/12/29 00:09:26;;;;;;;13.20;8.88;;;;;;;5.70;73.45;97982.02;1785688;80;25975;-58
2020/12/29 00:11:55;;;;;;;11.53;7.55;;;;;;;5.73;73.50;97984.61;1785248;80;25668;-59
2020/12/29 00:14:25;;;;;;;11.73;7.45;;;;;;;5.77;73.53;97990.33;1785563;80;25610;-58
2020/12/29 00:16:52;;;;;;;;;;;;;;;5.79;73.39;97981.38;1788281;80;25750;-57
2020/12/29 00:19:25;;;;;;;14.05;8.53;;;;;;;5.84;73.41;97974.22;1785784;80;25888;-58
2020/12/29 00:21:53;;;;;;;12.15;8.23;;;;;;;5.84;73.43;97975.03;1785746;80;26323;-58
2020/12/29 00:24:20;;;;;;;12.30;8.03;;;;;;;5.87;73.49;97972.22;1785700;80;25778;-57
2020/12/29 00:26:47;;;;;;;11.22;8.03;;;;;;;5.91;73.55;97967.77;1785806;80;25789;-57
2020/12/29 00:29:14;;;;;;;12.10;7.87;;;;;;;5.95;73.54;97971.34;1785667;80;26347;-57
2020/12/29 00:31:40;;;;;;;14.73;8.28;;;;;;;5.98;73.48;97975.50;1785588;80;25725;-56
2020/12/29 00:34:08;;;;;;;12.63;7.42;;;;;;;6.04;73.53;97972.59;1785333;80;26884;-56
2020/12/29 00:36:34;;;;;;;10.23;7.20;;;;;;;6.08;73.49;97971.60;1785584;80;26067;-56
2020/12/29 00:39:03;;;;;;;10.23;7.70;;;;;;;6.12;73.35;97955.61;1785626;80;25734;-56
2020/12/29 00:41:29;;;;;;;13.95;7.97;;;;;;;6.16;73.34;97953.27;1785571;80;26300;-56
2020/12/29 00:43:56;;;;;;;10.80;7.00;;;;;;;6.20;73.28;97949.34;1785542;80;25736;-56
2020/12/29 00:46:23;;;;;;;10.35;6.70;;;;;;;6.22;73.24;97942.30;1785464;80;25700;-56
2020/12/29 00:48:50;;;;;;;12.90;7.90;;;;;;;6.24;73.17;97942.17;1785474;80;25685;-56
2020/12/29 00:51:20;;;;;;;10.80;7.85;;;;;;;6.24;73.01;97942.17;1785620;80;25698;-55
2020/12/29 00:53:47;;;;;;;10.00;7.75;;;;;;;6.26;73.04;97935.90;1785776;80;26299;-56
2020/12/29 00:56:14;;;;;;;12.25;7.47;;;;;;;6.28;73.06;97924.83;1785705;80;25711;-56
2020/12/29 00:58:41;;;;;;;11.53;7.42;;;;;;;6.29;73.02;97924.48;1785581;80;26228;-56
2020/12/29 01:01:10;;;;;;;11.20;7.35;;;;;;;6.26;72.97;97910.97;1785591;80;26319;-58
2020/12/29 01:03:38;;;;;;;14.15;7.95;;;;;;;6.30;72.92;97916.67;1785353;80;25655;-57
2020/12/29 01:06:06;;;;;;;10.88;6.90;;;;;;;6.31;72.89;97914.76;1785519;80;25702;-57
2020/12/29 01:08:33;;;;;;;11.60;7.37;;;;;;;6.30;72.90;97907.27;1785435;80;25685;-57
2020/12/29 01:11:01;;;;;;;11.50;7.67;;;;;;;6.29;72.91;97900.33;1785476;80;27122;-56
2020/12/29 01:13:28;;;;;;;13.05;7.90;;;;;;;6.28;72.98;97897.98;1785544;80;26438;-56
2020/12/29 01:15:54;;;;;;;12.37;7.55;;;;;;;6.27;72.92;97893.17;1785133;80;25607;-57
2020/12/29 01:18:21;;;;;;;10.30;7.58;;;;;;;6.26;72.91;97906.37;1785066;80;25650;-57
2020/12/29 01:20:50;;;;;;;10.63;7.28;;;;;;;6.22;72.89;97900.13;1785157;80;25706;-57
2020/12/29 01:23:17;;;;;;;12.25;7.60;;;;;;;6.22;72.96;97891.30;1785069;80;26667;-55
2020/12/29 01:25:44;;;;;;;12.75;7.70;;;;;;;6.21;72.95;97891.84;1785134;80;25840;-56
2020/12/29 01:28:11;;;;;;;9.95;6.85;;;;;;;6.18;72.98;97891.19;1785247;80;25659;-57
2020/12/29 01:30:39;;;;;;;10.00;6.83;;;;;;;6.15;73.05;97877.88;1785121;80;25716;-56
2020/12/29 01:33:07;;;;;;;11.85;7.10;;;;;;;6.16;73.18;97873.28;1785160;80;25660;-57
2020/12/29 01:35:34;;;;;;;12.18;7.92;;;;;;;6.14;73.30;97876.86;1771331;78;26015;-57
2020/12/29 01:38:03;;;;;;;12.98;8.13;;;;;;;6.13;73.32;97872.61;1753013;81;25765;-57
2020/12/29 01:40:32;;;;;;;11.88;7.50;;;;;;;6.12;73.37;97871.06;1753091;81;25725;-53
2020/12/29 01:42:59;;;;;;;10.90;7.37;;;;;;;6.11;73.42;97872.97;1754404;81;25500;-55
2020/12/29 01:45:26;;;;;;;11.10;7.35;;;;;;;6.08;73.48;97881.69;1724356;81;25730;-56
2020/12/29 01:47:54;;;;;;;13.72;8.03;;;;;;;6.06;73.61;97862.47;1754635;81;25973;-56
2020/12/29 01:50:24;;;;;;;15.85;8.33;;;;;;;6.04;73.58;97862.57;1754511;81;25599;-56
2020/12/29 01:53:01;;;;;;;;;;;;;;;6.03;73.81;97863.67;1757210;81;25695;-57
2020/12/29 01:55:29;;;;;;;11.00;7.80;;;;;;;6.00;73.84;97858.44;1754491;81;25601;-56
2020/12/29 01:58:01;;;;;;;10.93;7.80;;;;;;;5.97;74.00;97853.74;1754543;81;25690;-56
2020/12/29 02:00:28;;;;;;;10.75;7.67;;;;;;;5.95;74.13;97851.36;1724874;81;28732;-56
2020/12/29 02:02:58;;;;;;;12.93;8.48;;;;;;;5.92;74.16;97857.40;1754840;80;25674;-56
2020/12/29 02:05:29;;;;;;;16.12;8.68;;;;;;;5.89;74.10;97844.68;1757425;81;25691;-56
2020/12/29 02:07:57;;;;;;;12.30;8.58;;;;;;;5.86;74.20;97841.33;1757442;81;25623;-56
2020/12/29 02:10:25;;;;;;;13.72;8.63;;;;;;;5.83;74.25;97847.93;1757505;81;25274;-57
2020/12/29 02:12:51;;;;;;;13.95;8.98;;;;;;;5.77;74.24;97844.67;1757393;81;26258;-56
2020/12/29 02:15:18;;;;;;;16.25;8.98;;;;;;;5.74;74.42;97844.80;1757300;81;25658;-56
2020/12/29 02:17:45;;;;;;;15.85;8.83;;;;;;;5.71;74.71;97837.42;1757442;81;26290;-57
2020/12/29 02:20:12;;;;;;;12.98;8.88;;;;;;;5.68;74.92;97832.72;1757348;81;25711;-57
2020/12/29 02:22:39;;;;;;;14.43;8.98;;;;;;;5.65;75.04;97824.00;1757377;81;25845;-57
2020/12/29 02:25:07;;;;;;;15.28;8.48;;;;;;;5.64;75.24;97828.38;1757510;81;25971;-57
2020/12/29 02:27:49;;;;;;;11.77;8.43;;;;;;;5.63;75.24;97818.77;1757494;81;25705;-57
2020/12/29 02:30:18;;;;;;;12.75;8.05;;;;;;;5.60;75.16;97819.66;1757402;81;25622;-57
2020/12/29 02:32:45;;;;;;;12.35;8.80;;;;;;;5.57;75.41;97814.97;1757383;81;25626;-57
2020/12/29 02:35:16;;;;;;;12.55;9.30;;;;;;;5.57;75.63;97804.24;1757316;81;25648;-57
2020/12/29 02:37:44;;;;;;;15.08;8.75;;;;;;;5.56;75.71;97808.59;1757374;81;26683;-57
2020/12/29 02:40:11;;;;;;;13.55;8.50;;;;;;;5.56;75.79;97799.21;1757407;81;26173;-57
2020/12/29 02:42:38;;;;;;;13.60;8.80;;;;;;;5.56;76.01;97784.47;1757333;81;25731;-57
2020/12/29 02:45:07;;;;;;;11.25;8.20;;;;;;;5.57;75.76;97782.79;1757428;81;25692;-56
2020/12/29 02:47:33;;;;;;;12.13;8.18;;;;;;;5.57;75.89;97784.13;1757516;81;25627;-57
2020/12/29 02:50:00;;;;;;;11.10;8.33;;;;;;;5.56;75.84;97774.52;1757323;81;26215;-57
2020/12/29 02:52:27;;;;;;;12.63;8.58;;;;;;;5.55;75.76;97767.60;1757418;81;25733;-57
2020/12/29 02:54:53;;;;;;;14.35;8.53;;;;;;;5.55;75.82;97772.16;1757375;81;25658;-57
2020/12/29 02:57:20;;;;;;;12.15;8.00;;;;;;;5.55;75.90;97765.45;1757284;81;25666;-57
2020/12/29 02:59:47;;;;;;;12.93;8.63;;;;;;;5.58;75.96;97771.50;1757384;81;25689;-57
2020/12/29 03:02:14;;;;;;;12.70;8.88;;;;;;;5.61;76.01;97770.83;1757381;81;25778;-57
2020/12/29 03:04:41;;;;;;;11.30;8.38;;;;;;;5.64;75.97;97765.36;1754955;81;25743;-57
2020/12/29 03:07:08;;;;;;;13.05;7.87;;;;;;;5.66;75.92;97756.41;1754444;81;25742;-56
2020/12/29 03:09:34;;;;;;;12.45;8.73;;;;;;;5.67;75.91;97754.73;1754334;81;25957;-59
2020/12/29 03:12:01;;;;;;;11.12;7.42;;;;;;;5.69;75.82;97761.11;1754548;81;25646;-57
2020/12/29 03:14:28;;;;;;;12.75;7.60;;;;;;;5.71;75.91;97761.55;1754417;81;25701;-57
2020/12/29 03:16:54;;;;;;;14.10;8.05;;;;;;;5.72;75.85;97751.02;1754354;81;25655;-57
2020/12/29 03:19:25;;;;;;;12.18;8.05;;;;;;;5.73;75.79;97749.34;1754405;81;25645;-57
2020/12/29 03:21:52;;;;;;;13.05;7.90;;;;;;;5.73;75.75;97748.00;1754430;81;25575;-57
2020/12/29 03:24:18;;;;;;;11.63;7.70;;;;;;;5.72;75.75;97738.41;1754294;81;25729;-57
2020/12/29 03:26:45;;;;;;;10.43;7.35;;;;;;;5.74;75.92;97734.83;1754369;81;26159;-56
2020/12/29 03:29:12;;;;;;;11.78;7.83;;;;;;;5.74;75.87;97729.46;1754366;81;25729;-57
2020/12/29 03:31:43;;;;;;;21.02;8.08;;;;;;;5.76;75.89;97730.47;1754361;81;25650;-57
2020/12/29 03:34:08;;;;;;;13.70;8.28;;;;;;;5.77;75.88;97730.66;1754159;81;25672;-58
2020/12/29 03:36:35;;;;;;;12.82;8.58;;;;;;;5.79;75.85;97743.97;1754365;81;25699;-57
2020/12/29 03:39:02;;;;;;;12.23;8.15;;;;;;;5.82;75.84;97730.43;1754265;81;27093;-57
2020/12/29 03:41:29;;;;;;;13.90;8.33;;;;;;;5.84;75.80;97726.07;1754341;81;25702;-57
2020/12/29 03:43:56;;;;;;;11.48;7.45;;;;;;;5.85;75.80;97731.09;1754374;81;25689;-57
2020/12/29 03:46:22;;;;;;;10.35;7.92;;;;;;;5.86;75.79;97727.31;1754276;81;25674;-57
2020/12/29 03:48:49;;;;;;;10.60;8.03;;;;;;;5.88;75.79;97719.69;1754462;81;25615;-57
2020/12/29 03:51:16;;;;;;;11.33;7.62;;;;;;;5.90;75.74;97723.38;1754416;81;26164;-57
2020/12/29 03:53:43;;;;;;;12.90;8.35;;;;;;;5.90;75.75;97718.78;1754344;81;25721;-57
2020/12/29 03:56:10;;;;;;;14.53;8.23;;;;;;;5.91;75.62;97711.54;1754427;81;25663;-57
2020/12/29 03:58:36;;;;;;;12.65;7.87;;;;;;;5.91;75.61;97712.88;1754389;81;26327;-57
2020/12/29 04:01:03;;;;;;;12.03;7.67;;;;;;;5.90;75.59;97702.69;1754443;81;25642;-57
2020/12/29 04:03:30;;;;;;;11.33;7.78;;;;;;;5.90;75.63;97708.63;1754748;81;26971;-57
2020/12/29 04:05:56;;;;;;;13.25;7.42;;;;;;;5.91;75.65;97706.95;1759826;81;25632;-57
2020/12/29 04:08:23;;;;;;;11.38;8.00;;;;;;;5.92;75.70;97698.33;1759776;81;25711;-57
2020/12/29 04:10:50;;;;;;;13.30;7.95;;;;;;;5.94;75.67;97701.44;1759844;81;25682;-56
2020/12/29 04:13:16;;;;;;;11.45;7.05;;;;;;;5.95;75.71;97702.45;1759938;81;26250;-57
2020/12/29 04:15:43;;;;;;;11.50;7.55;;;;;;;5.98;75.60;97691.06;1759974;81;26931;-57
2020/12/29 04:18:10;;;;;;;14.90;7.78;;;;;;;6.01;75.57;97690.16;1760040;81;25663;-57
2020/12/29 04:20:36;;;;;;;11.50;7.45;;;;;;;6.04;75.57;97693.50;1760015;81;25559;-57
2020/12/29 04:23:03;;;;;;;14.33;7.95;;;;;;;6.07;75.43;97680.75;1759970;81;25648;-58
2020/12/29 04:25:30;;;;;;;13.22;7.17;;;;;;;6.08;75.42;97687.12;1760122;81;25640;-59
2020/12/29 04:27:56;;;;;;;11.28;7.62;;;;;;;6.10;75.31;97692.15;1760046;81;26275;-58
2020/12/29 04:30:23;;;;;;;11.88;7.80;;;;;;;6.12;75.20;97673.80;1760072;81;25619;-59
2020/12/29 04:32:50;;;;;;;12.63;7.37;;;;;;;6.15;75.16;97681.94;1760166;81;25688;-57
2020/12/29 04:35:17;;;;;;;11.75;7.45;;;;;;;6.19;75.07;97682.59;1759965;81;25698;-58
2020/12/29 04:37:44;;;;;;;10.93;7.33;;;;;;;6.21;75.07;97675.75;1760017;81;25596;-59
2020/12/29 04:40:11;;;;;;;11.68;7.75;;;;;;;6.24;74.86;97678.32;1759975;81;26218;-58
2020/12/29 04:42:37;;;;;;;10.55;7.28;;;;;;;6.26;74.93;97656.70;1759811;81;25610;-58
2020/12/29 04:45:05;;;;;;;12.50;8.08;;;;;;;6.30;74.80;97666.19;1760086;81;25682;-58
2020/12/29 04:47:32;;;;;;;14.13;7.90;;;;;;;6.33;74.49;97666.31;1760088;81;25685;-58
2020/12/29 04:50:00;;;;;;;10.63;7.40;;;;;;;6.38;74.70;97655.09;1760098;81;25848;-58
2020/12/29 04:52:27;;;;;;;11.53;7.60;;;;;;;6.39;74.76;97651.29;1760144;81;26214;-58
2020/12/29 04:54:56;;;;;;;14.23;9.13;;;;;;;6.41;74.68;97648.45;1759970;81;25722;-58
2020/12/29 04:57:24;;;;;;;11.28;7.60;;;;;;;6.43;74.65;97648.11;1760076;81;25833;-57
2020/12/29 04:59:53;;;;;;;11.83;8.35;;;;;;;6.45;74.67;97639.14;1759943;81;25659;-57
2020/12/29 05:02:20;;;;;;;12.20;7.62;;;;;;;6.48;74.54;97643.26;1760002;81;25671;-57
2020/12/29 05:04:47;;;;;;;11.28;8.08;;;;;;;6.51;74.52;97639.12;1757275;80;26274;-57
2020/12/29 05:07:14;;;;;;;13.32;8.18;;;;;;;6.54;74.44;97635.74;1754453;81;25655;-57
2020/12/29 05:09:43;;;;;;;12.40;8.28;;;;;;;6.59;74.33;97637.37;1754476;81;25712;-58
2020/12/29 05:12:10;;;;;;;;;;;;;;;6.63;74.29;97636.91;1757060;81;25575;-57
2020/12/29 05:14:38;;;;;;;14.45;8.40;;;;;;;6.65;74.28;97624.67;1725035;81;25672;-58
2020/12/29 05:17:04;;;;;;;13.10;8.45;;;;;;;6.67;74.45;97625.67;1724944;81;26384;-58
2020/12/29 05:19:34;;;;;;;15.53;8.85;;;;;;;6.69;74.54;97638.98;1754464;81;25231;-58
2020/12/29 05:22:02;;;;;;;;;;;;;;;6.70;74.54;97627.09;1757154;81;25711;-58
2020/12/29 05:24:29;;;;;;;13.08;7.85;;;;;;;6.73;74.62;97625.63;1754449;81;26136;-58
2020/12/29 05:27:01;;;;;;;12.60;8.55;;;;;;;6.72;74.67;97628.09;1754485;81;25685;-58
2020/12/29 05:29:30;;;;;;;16.90;9.40;;;;;;;6.72;74.71;97624.86;1754562;81;25769;-58
2020/12/29 05:31:57;;;;;;;11.65;8.20;;;;;;;6.72;74.69;97631.58;1754565;81;25654;-58
2020/12/29 05:34:26;;;;;;;14.03;8.43;;;;;;;6.72;74.66;97618.69;1754382;81;25536;-58
2020/12/29 05:36:54;;;;;;;;;;;;;;;6.73;74.13;97622.95;1757126;81;25647;-58
2020/12/29 05:39:24;;;;;;;13.88;8.73;;;;;;;6.78;74.31;97617.88;1754492;81;25735;-58
2020/12/29 05:41:53;;;;;;;13.78;8.18;;;;;;;6.80;74.43;97620.42;1754652;81;25803;-57
2020/12/29 05:44:32;;;;;;;14.28;8.65;;;;;;;6.83;74.37;97620.30;1754497;81;25741;-58
2020/12/29 05:47:02;;;;;;;;;;;;;;;6.84;74.44;97605.72;1757050;81;25697;-57
2020/12/29 05:49:31;;;;;;;11.97;8.40;;;;;;;6.86;74.20;97602.91;1754335;81;25676;-57
2020/12/29 05:51:58;;;;;;;;;;;;;;;6.88;74.35;97608.72;1757145;81;25607;-58
2020/12/29 05:54:27;;;;;;;11.97;7.47;;;;;;;6.89;74.40;97600.84;1754341;81;25906;-58
2020/12/29 05:56:54;;;;;;;11.50;7.85;;;;;;;6.88;74.35;97590.48;1754468;81;25653;-58
2020/12/29 05:59:22;;;;;;;11.85;7.53;;;;;;;6.87;74.32;97593.70;1754386;81;25227;-57
2020/12/29 06:01:51;;;;;;;12.15;8.25;;;;;;;6.88;74.37;97592.59;1754326;81;25764;-57
2020/12/29 06:04:20;;;;;;;15.50;7.83;;;;;;;6.88;74.41;97587.79;1755265;81;25693;-58
2020/12/29 06:06:49;;;;;;;15.32;8.05;;;;;;;6.88;74.33;97587.79;1760084;81;25774;-58
2020/12/29 06:09:19;;;;;;;14.80;8.30;;;;;;;6.89;74.32;97578.58;1760172;81;25609;-58
2020/12/29 06:11:54;;;;;;;10.95;7.87;;;;;;;6.90;74.40;97573.44;1760112;81;25597;-58
2020/12/29 06:14:24;;;;;;;13.00;8.03;;;;;;;6.89;74.41;97575.32;1760135;81;25590;-58
2020/12/29 06:16:53;;;;;;;14.63;8.45;;;;;;;6.92;74.60;97571.17;1760066;81;25710;-57
2020/12/29 06:19:43;;;;;;;16.93;8.88;;;;;;;6.90;74.59;97574.20;1760268;81;26750;-57
2020/12/29 06:22:12;;;;;;;12.93;7.80;;;;;;;6.90;74.65;97573.44;1706754;83;25711;-57
2020/12/29 06:27:26;;;;;;;13.72;8.68;;;;;;;6.96;74.98;97573.36;1816222;78;35167;-58
2020/12/29 06:29:54;;;;;;;15.38;8.88;;;;;;;6.87;75.00;97573.55;1786670;80;25685;-58
2020/12/29 06:32:25;;;;;;;13.05;8.43;;;;;;;6.87;75.04;97560.69;1787475;80;26258;-58
2020/12/29 06:34:52;;;;;;;14.00;8.25;;;;;;;6.86;75.08;97569.33;1787282;80;25650;-58
2020/12/29 06:37:28;;;;;;;12.60;8.58;;;;;;;6.84;75.09;97563.50;1787320;80;25673;-58
2020/12/29 06:40:05;;;;;;;15.18;9.10;;;;;;;6.84;75.19;97568.88;1787353;80;26264;-58
2020/12/29 06:42:34;;;;;;;18.65;9.85;;;;;;;6.83;75.32;97557.16;1787160;80;25631;-58
2020/12/29 06:45:06;;;;;;;15.32;9.30;;;;;;;6.82;75.45;97551.56;1760645;80;25726;-58
2020/12/29 06:47:33;;;;;;;14.28;8.83;;;;;;;6.81;75.52;97549.99;1787374;80;25633;-59
2020/12/29 06:49:59;;;;;;;16.25;9.58;;;;;;;6.78;75.64;97560.13;1760695;80;25650;-58
2020/12/29 06:52:29;;;;;;;14.43;8.45;;;;;;;6.77;75.78;97553.95;1755519;81;25569;-59
2020/12/29 06:55:03;;;;;;;17.77;8.85;;;;;;;6.75;75.82;97550.07;1759130;81;25635;-59
2020/12/29 06:57:41;;;;;;;13.18;8.85;;;;;;;6.75;75.93;97551.41;1786753;80;25983;-58
2020/12/29 07:00:16;;;;;;;11.90;7.60;;;;;;;6.74;75.97;97543.90;1786861;80;25645;-59
2020/12/29 07:02:47;;;;;;;14.23;8.95;;;;;;;6.73;75.94;97546.39;1755641;81;25983;-60
2020/12/29 07:05:27;;;;;;;12.78;8.63;;;;;;;6.71;75.99;97529.84;1759038;81;25691;-59
2020/12/29 07:08:05;;;;;;;12.93;8.73;;;;;;;6.70;76.00;97531.73;1759168;81;25706;-59
2020/12/29 07:10:46;;;;;;;14.80;9.13;;;;;;;6.69;76.19;97524.82;1759123;81;25774;-59
2020/12/29 07:13:16;;;;;;;14.58;8.70;;;;;;;6.68;76.24;97521.91;1758982;81;25610;-60
2020/12/29 07:15:49;;;;;;;12.88;8.40;;;;;;;6.69;76.28;97522.68;1786900;80;25606;-60
2020/12/29 07:18:25;;;;;;;16.23;9.18;;;;;;;6.68;76.35;97527.86;1740813;80;25666;-60
2020/12/29 07:20:56;;;;;;;11.60;7.85;;;;;;;6.68;76.30;97522.48;1767508;81;25615;-60
2020/12/29 07:23:30;;;;;;;13.15;8.73;;;;;;;6.69;76.41;97524.82;1767804;81;26674;-60
2020/12/29 07:26:01;;;;;;;14.00;8.68;;;;;;;6.69;76.43;97517.30;1765671;81;26366;-61
2020/12/29 07:28:30;;;;;;;14.93;9.05;;;;;;;6.69;76.60;97527.51;1761216;81;25898;-61
2020/12/29 07:30:57;;;;;;;13.40;8.98;;;;;;;6.70;76.77;97537.11;1761362;81;25598;-62
2020/12/29 07:33:26;;;;;;;15.93;9.95;;;;;;;6.68;77.12;97525.94;1761187;81;25567;-62
2020/12/29 07:35:54;;;;;;;15.43;9.63;;;;;;;6.65;77.21;97529.31;1761520;81;25950;-62
2020/12/29 07:38:27;;;;;;;16.17;10.18;;;;;;;6.61;77.84;97522.33;1760696;81;25791;-61
2020/12/29 07:40:54;;;;;;;15.32;9.30;;;;;;;6.57;77.76;97521.45;1759778;81;25760;-70
2020/12/29 07:43:21;;;;;;;17.05;10.28;;;;;;;6.53;78.21;97528.09;1760610;81;25707;-65
2020/12/29 07:45:48;;;;;;;19.65;11.03;;;;;;;6.47;78.35;97527.59;1761065;81;25652;-76
2020/12/29 07:48:15;;;;;;;17.40;9.60;;;;;;;6.41;78.49;97519.58;1760967;81;25700;-64
2020/12/29 07:50:42;;;;;;;15.70;9.65;;;;;;;6.36;78.91;97517.93;1760910;81;25613;-66
2020/12/29 07:53:11;;;;;;;15.18;9.50;;;;;;;6.32;79.05;97522.45;1761000;81;25669;-58
2020/12/29 07:55:43;;;;;;;15.53;9.73;;;;;;;6.29;79.45;97520.45;1761104;81;25652;-62
2020/12/29 07:58:10;;;;;;;14.93;9.33;;;;;;;6.29;79.69;97515.66;1761030;81;25707;-65
2020/12/29 08:00:39;;;;;;;15.53;10.25;;;;;;;6.26;80.05;97511.75;1760962;81;25981;-68
2020/12/29 08:03:06;;;;;;;13.95;8.85;;;;;;;6.24;79.82;97517.27;1755311;81;25633;-61
2020/12/29 08:05:34;;;;;;;16.82;9.58;;;;;;;6.23;80.08;97523.20;1736636;82;25679;-78
2020/12/29 08:08:05;;;;;;;15.65;11.00;;;;;;;6.19;80.16;97517.53;1736598;82;25688;-62
2020/12/29 08:10:36;;;;;;;15.23;10.58;;;;;;;6.18;80.37;97519.44;1736602;82;25704;-63
2020/12/29 08:13:08;;;;;;;16.93;10.45;;;;;;;6.17;80.52;97520.55;1736605;82;25909;-65
2020/12/29 08:15:42;;;;;;;16.55;9.85;;;;;;;6.15;80.66;97514.77;1736250;82;25658;-64
2020/12/29 08:18:18;;;;;;;16.07;9.70;;;;;;;6.15;81.29;97511.50;1736467;82;25931;-61
2020/12/29 08:20:50;;;;;;;16.52;10.72;;;;;;;6.13;81.06;97515.10;1736830;82;25695;-71
2020/12/29 08:23:22;;;;;;;16.85;10.63;;;;;;;6.13;81.18;97515.65;1736721;82;25652;-67
2020/12/29 08:25:54;;;;;;;15.15;10.53;;;;;;;6.11;81.52;97505.28;1735815;82;25923;-61
2020/12/29 08:28:24;;;;;;;18.82;11.08;;;;;;;6.09;81.43;97513.45;1735433;82;25687;-62
2020/12/29 08:30:52;;;;;;;17.32;10.85;;;;;;;6.11;81.66;97516.56;1753776;81;25627;-59
2020/12/29 08:33:22;;;;;;;18.00;10.88;;;;;;;6.09;81.99;97511.54;1726505;81;25708;-58
2020/12/29 08:35:56;;;;;;;13.88;9.65;;;;;;;6.08;81.84;97507.31;1768974;79;25771;-59
2020/12/29 08:38:43;;;;;;;17.40;10.18;;;;;;;6.07;82.75;97515.70;1737533;81;26454;-58
2020/12/29 08:41:36;;;;;;;16.50;10.30;;;;;;;6.07;82.16;97515.14;1749357;81;25820;-61
2020/12/29 08:44:05;;;;;;;15.25;9.53;;;;;;;6.07;82.91;97514.37;1777447;80;25672;-61
2020/12/29 08:46:35;;;;;;;16.15;10.40;;;;;;;6.05;82.81;97520.65;1777461;80;25632;-61
2020/12/29 08:49:05;;;;;;;16.23;9.28;;;;;;;6.03;82.72;97514.83;1777651;80;25627;-65
2020/12/29 08:51:42;;;;;;;15.38;9.43;;;;;;;6.02;82.96;97518.66;1777356;80;26166;-60
2020/12/29 08:54:12;;;;;;;14.80;9.38;;;;;;;6.00;83.08;97512.29;1773015;80;25823;-58
2020/12/29 08:56:40;;;;;;;14.85;8.78;;;;;;;6.01;83.02;97527.27;1777498;80;26280;-61
2020/12/29 08:59:19;;;;;;;14.15;8.80;;;;;;;6.00;83.36;97516.88;1777381;80;25653;-60
2020/12/29 09:01:59;;;;;;;15.68;8.60;;;;;;;5.97;83.56;97519.11;1777686;80;25639;-58
2020/12/29 09:04:34;;;;;;;13.98;8.28;;;;;;;5.96;83.80;97517.57;1777546;80;25975;-57
2020/12/29 09:07:13;;;;;;;16.77;9.33;;;;;;;5.94;83.84;97517.66;1776685;80;25691;-60
2020/12/29 09:09:54;;;;;;;13.35;8.65;;;;;;;5.93;84.06;97522.82;1774905;80;25605;-59
2020/12/29 09:12:34;;;;;;;11.73;8.33;;;;;;;5.90;83.96;97515.45;1755070;81;25675;-59
2020/12/29 09:15:09;;;;;;;15.83;8.63;;;;;;;5.91;84.22;97521.05;1755774;81;25649;-56
2020/12/29 09:17:42;;;;;;;14.90;8.65;;;;;;;5.88;84.52;97511.78;1755767;79;26124;-58
2020/12/29 09:20:21;;;;;;;12.68;8.33;;;;;;;5.89;84.56;97515.23;1755758;81;25693;-56
2020/12/29 09:23:11;;;;;;;15.35;8.43;;;;;;;5.88;84.94;97513.69;1755948;81;32896;-57
2020/12/29 09:25:44;;;;;;;17.02;9.25;;;;;;;5.85;84.90;97507.09;1755849;81;25626;-54
2020/12/29 09:28:25;;;;;;;13.93;8.80;;;;;;;5.84;84.98;97513.60;1755762;81;25634;-56
2020/12/29 09:31:10;;;;;;;14.83;8.70;;;;;;;5.84;85.00;97515.48;1730329;81;26270;-54
2020/12/29 09:33:38;;;;;;;14.10;8.80;;;;;;;5.83;85.21;97509.92;1755739;81;25614;-54
2020/12/29 09:36:17;;;;;;;;;;;;;;;5.83;85.18;97503.22;1758374;81;25691;-55
2020/12/29 09:38:44;;;;;;;12.65;8.23;;;;;;;5.80;85.27;97512.72;1755480;81;25655;-56
2020/12/29 09:41:11;;;;;;;15.70;8.90;;;;;;;5.80;85.66;97508.69;1755219;81;25734;-55
2020/12/29 09:43:38;;;;;;;14.50;9.53;;;;;;;5.79;85.52;97508.49;1755180;81;26347;-55
2020/12/29 09:46:05;;;;;;;12.88;8.53;;;;;;;5.79;85.56;97506.58;1755131;81;25742;-54
2020/12/29 09:48:31;;;;;;;15.95;8.83;;;;;;;5.82;85.73;97513.14;1755208;81;25625;-51
2020/12/29 09:50:58;;;;;;;14.58;8.73;;;;;;;5.82;86.02;97506.44;1755184;81;25699;-48
2020/12/29 09:53:25;;;;;;;10.80;7.55;;;;;;;5.82;85.82;97500.30;1755181;81;25722;-48
2020/12/29 09:55:52;;;;;;;13.98;8.08;;;;;;;5.82;85.88;97505.67;1755123;81;28033;-49
2020/12/29 09:58:19;;;;;;;12.53;7.42;;;;;;;5.84;86.54;97514.14;1755148;81;25593;-46
2020/12/29 10:00:47;;;;;;;10.95;7.25;;;;;;;5.82;86.33;97505.09;1755150;81;25673;-48
2020/12/29 10:03:16;;;;;;;12.93;6.67;;;;;;;5.83;86.12;97500.53;1755205;81;25672;-47
2020/12/29 10:05:43;;;;;;;8.80;6.10;;;;;;;5.84;86.33;97494.83;1755117;81;25652;-49
2020/12/29 10:08:12;;;;;;;9.48;6.45;;;;;;;5.92;86.40;97519.34;1755215;81;25710;-48
2020/12/29 10:10:39;;;;;;;10.15;6.00;;;;;;;5.86;86.39;97510.58;1755056;81;25712;-52
2020/12/29 10:13:05;;;;;;;9.10;5.47;;;;;;;5.86;86.46;97509.23;1755289;81;25789;-52
2020/12/29 10:15:32;;;;;;;6.37;4.87;;;;;;;5.87;86.83;97510.20;1755101;81;25598;-55
2020/12/29 10:18:00;;;;;;;7.37;4.87;;;;;;;5.88;87.21;97521.73;1755147;81;25673;-55
2020/12/29 10:20:27;;;;;;;8.18;4.78;;;;;;;5.89;87.94;97521.94;1755216;81;25771;-56
2020/12/29 10:22:54;;;;;;;6.72;4.55;;;;;;;5.88;87.74;97530.55;1755081;81;25692;-50
2020/12/29 10:25:21;;;;;;;8.18;5.10;;;;;;;5.89;87.75;97528.10;1755089;81;25623;-53
2020/12/29 10:27:47;;;;;;;5.70;4.33;;;;;;;5.89;87.41;97532.13;1755212;81;25682;-49
2020/12/29 10:30:14;;;;;;;7.12;4.58;;;;;;;5.91;87.72;97536.58;1755168;81;25664;-50
2020/12/29 10:32:41;;;;;;;7.33;4.53;;;;;;;5.91;87.55;97543.28;1755188;81;26341;-51
2020/12/29 10:35:09;;;;;;;7.20;4.58;;;;;;;5.92;87.60;97560.92;1755284;81;25660;-49
2020/12/29 10:37:36;;;;;;;6.62;4.60;;;;;;;5.92;88.03;97595.80;1755335;81;26318;-49
2020/12/29 10:40:04;;;;;;;5.62;4.05;;;;;;;5.93;87.74;97570.55;1755252;81;25640;-49
2020/12/29 10:42:32;;;;;;;8.53;4.25;;;;;;;5.92;87.86;97577.59;1753251;81;25661;-49
2020/12/29 10:44:58;;;;;;;5.58;3.90;;;;;;;5.90;87.68;97580.62;1744461;82;26474;-52
2020/12/29 10:47:25;;;;;;;7.28;4.30;;;;;;;5.90;87.68;97590.01;1744377;82;25758;-48
2020/12/29 10:49:52;;;;;;;5.20;3.83;;;;;;;5.89;87.74;97593.83;1734233;81;25681;-51
2020/12/29 10:52:19;;;;;;;5.80;3.62;;;;;;;5.87;87.40;97593.37;1742109;82;25722;-51
2020/12/29 10:54:46;;;;;;;4.05;3.02;;;;;;;5.82;87.24;97606.27;1731634;82;25746;-58
2020/12/29 10:57:12;;;;;;;4.90;3.33;;;;;;;5.73;87.13;97617.91;1715339;82;26242;-61
2020/12/29 10:59:39;;;;;;;5.08;3.70;;;;;;;5.65;86.71;97620.75;1678845;80;27068;-61
2020/12/29 11:02:07;;;;;;;5.00;2.75;;;;;;;5.56;86.75;97645.03;1635115;86;25667;-65
2020/12/29 11:04:34;;;;;;;6.28;3.33;;;;;;;5.43;86.38;97673.75;1635311;87;26272;-59
2020/12/29 11:07:01;;;;;;;5.17;3.37;;;;;;;5.32;86.24;97669.43;1635281;87;25642;-61
2020/12/29 11:09:28;;;;;;;4.83;3.22;;;;;;;5.22;86.22;97673.34;1635374;87;27097;-60
2020/12/29 11:11:54;;;;;;;3.42;2.83;;;;;;;5.09;86.19;97724.61;1635280;87;25786;-59
2020/12/29 11:14:21;;;;;;;6.47;3.55;;;;;;;4.99;86.09;97701.74;1635594;86;25705;-58
2020/12/29 11:16:51;;;;;;;4.60;2.60;;;;;;;4.90;86.19;97705.08;1635366;87;25731;-62
2020/12/29 11:19:17;;;;;;;;;;;;;;;4.77;86.17;97727.83;1638151;86;25683;-62
2020/12/29 11:21:47;;;;;;;4.95;2.80;;;;;;;4.65;86.17;97753.26;1635410;87;25829;-59
2020/12/29 11:24:14;;;;;;;;;;;;;;;4.57;86.53;97775.55;1637791;87;25764;-69
2020/12/29 11:26:41;;;;;;;4.83;3.00;;;;;;;4.47;86.37;97757.99;1635565;87;25696;-62
2020/12/29 11:29:08;;;;;;;5.05;3.33;;;;;;;4.39;86.73;97809.17;1635339;87;25782;-57
2020/12/29 11:31:34;;;;;;;4.97;3.02;;;;;;;4.33;86.68;97789.63;1635577;87;25679;-55
2020/12/29 11:34:01;;;;;;;5.03;3.70;;;;;;;4.27;87.08;97809.90;1635504;86;25883;-67
2020/12/29 11:36:28;;;;;;;8.70;3.85;;;;;;;4.22;87.55;97824.02;1635941;86;25724;-64
2020/12/29 11:38:55;;;;;;;6.03;3.33;;;;;;;4.20;87.16;97799.48;1635464;87;25719;-63
2020/12/29 11:41:21;;;;;;;5.75;3.75;;;;;;;4.17;88.02;97852.30;1635425;87;25646;-64
2020/12/29 11:43:48;;;;;;;5.10;4.05;;;;;;;4.15;87.38;97833.12;1635347;87;25652;-63
2020/12/29 11:46:15;;;;;;;6.67;4.78;;;;;;;4.14;87.76;97848.41;1635568;87;25818;-61
2020/12/29 11:48:41;;;;;;;7.75;4.95;;;;;;;4.13;87.78;97858.09;1635384;87;25818;-60